createdAt,value
2022-10-15T00:04:38.423Z,15.90
2022-10-15T00:09:37.651Z,25.25
2022-10-15T00:14:35.691Z,27.77
2022-10-15T00:19:35.976Z,25.35
2022-10-15T00:24:35.320Z,17.40
2022-10-15T00:29:34.025Z,24.80
2022-10-15T00:34:34.305Z,30.13
2022-10-15T00:39:39.378Z,20.85
2022-10-15T00:45:03.754Z,13.18
2022-10-15T00:50:17.557Z,9.70
2022-10-15T00:55:45.067Z,5.00
2022-10-15T01:00:46.342Z,11.32
2022-10-15T01:05:48.210Z,13.50
2022-10-15T01:11:29.416Z,22.15
2022-10-15T01:16:41.378Z,20.15
2022-10-15T01:22:00.693Z,23.67
2022-10-15T01:27:39.927Z,16.70
2022-10-15T01:32:52.302Z,7.47
2022-10-15T01:38:02.927Z,7.78
2022-10-15T01:43:05.021Z,8.20
2022-10-15T01:48:27.422Z,7.18
2022-10-15T01:53:31.006Z,4.05
2022-10-15T01:58:39.170Z,7.05
2022-10-15T02:04:05.437Z,2.40
2022-10-15T02:09:27.138Z,4.88
2022-10-15T02:14:39.272Z,11.02
2022-10-15T02:20:10.760Z,3.03
2022-10-15T02:25:14.482Z,4.95
2022-10-15T02:30:22.581Z,13.02
2022-10-15T02:35:25.594Z,10.68
2022-10-15T02:40:30.932Z,7.30
2022-10-15T02:45:34.200Z,5.32
2022-10-15T02:50:35.330Z,5.75
2022-10-15T02:55:33.753Z,7.97
2022-10-15T03:00:35.571Z,6.63
2022-10-15T03:05:37.467Z,5.30
2022-10-15T03:10:39.988Z,5.82
2022-10-15T03:15:42.285Z,11.00
2022-10-15T03:20:45.640Z,6.75
2022-10-15T03:25:47.576Z,8.23
2022-10-15T03:30:54.645Z,13.30
2022-10-15T03:35:54.530Z,15.73
2022-10-15T03:40:55.177Z,12.52
2022-10-15T03:46:03.558Z,16.52
2022-10-15T03:51:18.647Z,16.20
2022-10-15T03:56:31.096Z,17.23
2022-10-15T04:01:54.526Z,13.00
2022-10-15T04:07:02.507Z,7.28
2022-10-15T04:12:14.593Z,13.38
2022-10-15T04:22:59.434Z,8.55
2022-10-15T04:28:05.865Z,6.05
2022-10-15T04:33:10.630Z,10.38
2022-10-15T04:38:56.455Z,5.20
2022-10-15T04:44:24.459Z,7.10
2022-10-15T04:49:33.288Z,4.13
2022-10-15T05:00:57.668Z,5.78
2022-10-15T05:06:26.493Z,17.45
2022-10-15T05:17:48.263Z,8.02
2022-10-15T05:22:51.000Z,5.18
2022-10-15T05:33:28.283Z,9.15
2022-10-15T05:38:29.998Z,8.10
2022-10-15T05:43:37.367Z,7.55
2022-10-15T05:48:51.413Z,7.25
2022-10-15T05:54:00.372Z,13.25
2022-10-15T05:59:05.837Z,6.50
2022-10-15T06:09:15.803Z,8.77
2022-10-15T06:14:21.225Z,15.50
2022-10-15T06:19:30.899Z,13.77
2022-10-15T06:24:35.563Z,11.20
2022-10-15T06:29:53.190Z,10.32
2022-10-15T06:34:52.913Z,13.13
2022-10-15T06:40:10.701Z,16.45
2022-10-15T06:45:15.879Z,16.88
2022-10-15T06:55:20.938Z,11.52
2022-10-15T07:00:22.242Z,13.60
2022-10-15T07:05:24.317Z,11.75
2022-10-15T07:10:24.764Z,11.15
2022-10-15T07:15:23.945Z,31.08
2022-10-15T07:20:26.660Z,12.05
2022-10-15T07:25:30.809Z,14.55
2022-10-15T07:30:33.309Z,15.85
2022-10-15T07:35:35.143Z,23.70
2022-10-15T07:40:37.071Z,15.70
2022-10-15T07:45:39.726Z,9.57
2022-10-15T07:50:43.762Z,10.15
2022-10-15T07:55:46.319Z,12.60
2022-10-15T08:00:46.725Z,16.00
2022-10-15T08:06:02.053Z,19.23
2022-10-15T08:11:14.779Z,13.02
2022-10-15T08:16:17.263Z,11.32
2022-10-15T08:21:29.709Z,8.02
2022-10-15T08:26:27.724Z,17.33
2022-10-15T08:31:41.586Z,15.20
2022-10-15T08:36:51.749Z,28.58
2022-10-15T08:42:24.562Z,19.50
2022-10-15T08:47:52.934Z,16.65
2022-10-15T08:52:55.186Z,16.27
2022-10-15T08:58:00.982Z,17.65
2022-10-15T09:03:47.780Z,18.75
2022-10-15T09:09:01.092Z,16.92
2022-10-15T09:13:59.121Z,21.20
2022-10-15T09:18:59.854Z,20.20
2022-10-15T09:24:03.073Z,20.15
2022-10-15T09:29:33.549Z,16.63
2022-10-15T09:34:42.541Z,13.52
2022-10-15T09:40:02.754Z,12.40
2022-10-15T09:45:05.051Z,10.02
2022-10-15T09:50:10.963Z,8.38
2022-10-15T09:55:35.748Z,11.23
2022-10-15T10:01:01.849Z,7.88
2022-10-15T10:06:11.988Z,13.10
2022-10-15T10:11:21.083Z,17.05
2022-10-15T10:16:21.499Z,8.68
2022-10-15T10:21:50.645Z,9.77
2022-10-15T10:26:51.311Z,10.43
2022-10-15T10:31:59.567Z,10.93
2022-10-15T10:36:59.157Z,11.27
2022-10-15T10:42:02.054Z,6.95
2022-10-15T10:47:24.271Z,9.93
2022-10-15T10:52:35.439Z,12.43
2022-10-15T10:57:47.371Z,5.20
2022-10-15T11:02:48.453Z,9.23
2022-10-15T11:08:20.709Z,8.95
2022-10-15T11:14:01.803Z,5.65
2022-10-15T11:19:54.539Z,7.13
2022-10-15T11:25:21.650Z,6.20
2022-10-15T11:30:34.366Z,4.60
2022-10-15T11:35:54.465Z,7.28
2022-10-15T11:41:00.895Z,2.95
2022-10-15T11:46:12.131Z,5.70
2022-10-15T11:51:17.523Z,3.40
2022-10-15T11:56:39.478Z,19.30
2022-10-15T12:01:49.486Z,3.45
2022-10-15T12:06:51.776Z,5.55
2022-10-15T12:12:23.793Z,5.07
2022-10-15T12:17:35.964Z,3.45
2022-10-15T12:22:45.149Z,6.32
2022-10-15T12:27:43.565Z,4.47
2022-10-15T12:32:43.942Z,3.28
2022-10-15T12:37:48.951Z,3.80
2022-10-15T12:43:01.610Z,6.70
2022-10-15T12:48:07.576Z,3.50
2022-10-15T12:53:07.398Z,4.20
2022-10-15T12:58:38.354Z,2.88
2022-10-15T13:03:39.666Z,4.80
2022-10-15T13:08:38.758Z,3.72
2022-10-15T13:13:43.733Z,4.65
2022-10-15T13:18:49.685Z,4.60
2022-10-15T13:23:49.810Z,4.03
2022-10-15T13:28:52.993Z,3.17
2022-10-15T13:33:57.982Z,2.95
2022-10-15T13:39:01.733Z,3.15
2022-10-15T13:44:03.213Z,3.35
2022-10-15T13:49:11.899Z,4.93
2022-10-15T13:54:23.953Z,3.78
2022-10-15T13:59:23.356Z,6.43
2022-10-15T14:04:26.834Z,4.20
2022-10-15T14:09:34.849Z,3.97
2022-10-15T14:14:48.159Z,4.18
2022-10-15T14:20:26.917Z,3.77
2022-10-15T14:25:35.982Z,5.13
2022-10-15T14:30:36.911Z,4.40
2022-10-15T14:35:40.980Z,6.63
2022-10-15T14:41:06.477Z,5.88
2022-10-15T14:46:08.154Z,5.18
2022-10-15T14:51:14.949Z,8.43
2022-10-15T14:56:23.422Z,14.43
2022-10-15T15:01:22.552Z,5.63
2022-10-15T15:06:21.363Z,6.35
2022-10-15T15:11:23.558Z,5.80
2022-10-15T15:16:22.216Z,10.07
2022-10-15T15:21:24.118Z,6.85
2022-10-15T15:26:25.253Z,5.45
2022-10-15T15:31:24.483Z,8.90
2022-10-15T15:36:26.914Z,4.93
2022-10-15T15:41:26.532Z,7.53
2022-10-15T15:46:26.877Z,7.72
2022-10-15T15:51:30.895Z,11.73
2022-10-15T16:01:47.061Z,11.70
2022-10-15T16:06:50.721Z,15.15
2022-10-15T16:11:55.646Z,9.60
2022-10-15T16:16:55.316Z,10.52
2022-10-15T16:21:58.424Z,15.68
2022-10-15T16:26:58.340Z,10.00
2022-10-15T16:31:56.771Z,19.70
2022-10-15T16:36:56.288Z,14.20
2022-10-15T16:41:59.066Z,24.10
2022-10-15T16:47:00.682Z,15.20
2022-10-15T16:52:00.789Z,12.45
2022-10-15T16:57:01.894Z,16.60
2022-10-15T17:02:04.317Z,12.13
2022-10-15T17:07:03.595Z,14.93
2022-10-15T17:12:02.050Z,16.00
2022-10-15T17:17:01.285Z,15.95
2022-10-15T17:22:02.211Z,23.33
2022-10-15T17:27:08.527Z,22.13
2022-10-15T17:32:07.627Z,19.13
2022-10-15T17:37:11.190Z,18.05
2022-10-15T17:42:15.813Z,17.98
2022-10-15T17:47:14.313Z,17.40
2022-10-15T17:52:19.009Z,19.80
2022-10-15T17:57:19.840Z,16.65
2022-10-15T18:02:20.090Z,15.13
2022-10-15T18:07:20.282Z,11.27
2022-10-15T18:12:22.935Z,16.35
2022-10-15T18:17:22.069Z,17.15
2022-10-15T18:22:25.798Z,11.27
2022-10-15T18:27:28.175Z,17.52
2022-10-15T18:32:27.867Z,14.15
2022-10-15T18:37:34.388Z,12.80
2022-10-15T18:42:34.107Z,10.98
2022-10-15T18:47:41.470Z,17.70
2022-10-15T18:52:44.126Z,17.48
2022-10-15T18:57:49.389Z,14.27
2022-10-15T19:02:51.807Z,16.50
2022-10-15T19:08:00.262Z,16.35
2022-10-15T19:13:00.710Z,9.85
2022-10-15T19:18:06.075Z,12.37
2022-10-15T19:23:08.133Z,13.05
2022-10-15T19:28:12.028Z,16.08
2022-10-15T19:33:18.126Z,8.85
2022-10-15T19:38:34.313Z,11.75
2022-10-15T19:43:37.364Z,13.18
2022-10-15T19:48:36.726Z,13.38
2022-10-15T19:53:39.024Z,17.40
2022-10-15T19:58:37.655Z,10.60
2022-10-15T20:03:52.459Z,8.55
2022-10-15T20:08:52.350Z,13.77
2022-10-15T20:13:54.018Z,10.38
2022-10-15T20:18:56.600Z,7.47
2022-10-15T20:24:05.222Z,9.40
2022-10-15T20:29:05.197Z,10.75
2022-10-15T20:34:08.193Z,10.57
2022-10-15T20:39:10.030Z,9.43
2022-10-15T20:44:18.934Z,12.20
2022-10-15T20:49:20.723Z,9.23
2022-10-15T20:54:19.376Z,8.25
2022-10-15T20:59:21.040Z,8.57
2022-10-15T21:04:22.313Z,8.57
2022-10-15T21:09:24.082Z,7.57
2022-10-15T21:14:22.506Z,17.60
2022-10-15T21:19:25.637Z,6.38
2022-10-15T21:24:28.099Z,10.30
2022-10-15T21:29:28.530Z,11.32
2022-10-15T21:34:28.682Z,10.15
2022-10-15T21:39:27.576Z,8.98
2022-10-15T21:44:27.380Z,11.98
2022-10-15T21:49:26.802Z,11.18
2022-10-15T21:54:27.415Z,10.50
2022-10-15T21:59:30.069Z,10.85
2022-10-15T22:04:28.065Z,12.48
2022-10-15T22:09:30.931Z,14.32
2022-10-15T22:14:30.311Z,16.13
2022-10-15T22:19:34.000Z,14.48
2022-10-15T22:24:34.206Z,22.58
2022-10-15T22:29:34.361Z,18.55
2022-10-15T22:34:35.643Z,24.30
2022-10-15T22:39:35.516Z,17.45
2022-10-15T22:44:38.108Z,27.98
2022-10-15T22:49:35.688Z,15.50
2022-10-15T22:54:34.673Z,17.90
2022-10-15T22:59:33.396Z,11.50
2022-10-15T23:04:33.081Z,13.32
2022-10-15T23:09:34.416Z,14.23
2022-10-15T23:14:37.567Z,12.25
2022-10-15T23:19:36.321Z,8.27
2022-10-15T23:24:37.910Z,8.30
2022-10-15T23:29:37.691Z,11.80
2022-10-15T23:34:37.826Z,14.27
2022-10-15T23:39:38.104Z,10.30
2022-10-15T23:44:40.084Z,9.38
2022-10-15T23:49:40.906Z,9.07
2022-10-15T23:54:43.193Z,12.00
2022-10-15T23:59:45.591Z,10.73
